Time;durP1;ratioP1;P1;durP2;ratioP2;P2;SDS_P1;SDS_P2;PMS_P1;PMS_P2;Temp;Humidity;BMP_temperature;BMP_pressure;BME280_temperature;BME280_humidity;BME280_pressure;Samples;Min_cycle;Max_cycle;Signal;HPM_P1;HPM_P2
2023/01/11 00:02:03;;;;;;;6.63;4.40;;;;;;;;;;5051874;28;20175;-52
2023/01/11 00:04:29;;;;;;;8.50;4.93;;;4.80;99.90;;;;;;5051678;28;20175;-52
2023/01/11 00:06:55;;;;;;;5.60;4.13;;;4.80;99.90;;;;;;5051677;28;20226;-53
2023/01/11 00:09:21;;;;;;;7.73;4.70;;;4.80;99.90;;;;;;5051801;28;20207;-50
2023/01/11 00:11:47;;;;;;;5.17;3.63;;;4.80;99.90;;;;;;5051809;28;20589;-53
2023/01/11 00:14:13;;;;;;;7.03;4.10;;;4.70;99.90;;;;;;5046993;28;20187;-52
2023/01/11 00:16:39;;;;;;;6.47;4.20;;;4.70;99.90;;;;;;5031299;28;20620;-55
2023/01/11 00:19:04;;;;;;;5.63;4.07;;;4.80;99.90;;;;;;5031704;28;20186;-52
2023/01/11 00:21:30;;;;;;;5.57;4.27;;;4.70;99.90;;;;;;5031666;28;20168;-52
2023/01/11 00:23:56;;;;;;;7.83;4.37;;;4.80;99.90;;;;;;5031193;28;20763;-52
2023/01/11 00:26:21;;;;;;;6.10;4.07;;;4.80;99.90;;;;;;5031530;28;20204;-52
2023/01/11 00:28:48;;;;;;;6.13;3.73;;;4.70;99.90;;;;;;5031661;28;20203;-52
2023/01/11 00:31:14;;;;;;;5.80;3.93;;;4.80;99.90;;;;;;5034417;28;20270;-56
2023/01/11 00:33:39;;;;;;;6.97;4.13;;;4.80;99.90;;;;;;5030598;28;21086;-51
2023/01/11 00:36:05;;;;;;;8.00;4.30;;;4.70;99.90;;;;;;5031054;28;20274;-52
2023/01/11 00:38:45;;;;;;;7.27;3.67;;;4.70;99.90;;;;;;5031321;28;20195;-55
2023/01/11 00:49:28;;;;;;;7.13;3.87;;;4.60;99.90;;;;;;5031128;28;20215;-52
2023/01/11 00:51:53;;;;;;;6.23;4.00;;;4.60;99.90;;;;;;5031479;28;20176;-53
2023/01/11 00:54:19;;;;;;;5.70;3.93;;;4.60;99.90;;;;;;5030882;28;20182;-52
2023/01/11 00:56:45;;;;;;;8.57;4.47;;;4.60;99.90;;;;;;5031205;28;20703;-51
2023/01/11 00:59:10;;;;;;;5.10;3.80;;;4.60;99.90;;;;;;5031101;28;20171;-52
2023/01/11 01:01:36;;;;;;;5.10;3.97;;;4.50;99.90;;;;;;5031228;28;20172;-52
2023/01/11 01:04:02;;;;;;;5.13;3.67;;;4.50;99.90;;;;;;5032801;28;20179;-52
2023/01/11 01:06:29;;;;;;;6.33;3.77;;;4.60;99.90;;;;;;5030966;28;20203;-52
2023/01/11 01:08:55;;;;;;;7.07;3.97;;;4.50;99.90;;;;;;5031111;28;20187;-52
2023/01/11 01:11:21;;;;;;;7.87;4.10;;;4.60;99.90;;;;;;5031287;28;20621;-54
2023/01/11 01:16:31;;;;;;;5.90;3.90;;;4.60;99.90;;;;;;5031066;28;20211;-52
2023/01/11 01:19:00;;;;;;;5.73;3.90;;;4.60;99.90;;;;;;5031239;28;20168;-52
2023/01/11 01:21:26;;;;;;;7.67;4.17;;;4.60;99.90;;;;;;5030994;28;20629;-53
2023/01/11 01:23:55;;;;;;;7.17;4.17;;;4.50;99.90;;;;;;5030739;28;20182;-53
2023/01/11 01:26:21;;;;;;;6.40;3.83;;;4.50;99.90;;;;;;5030850;28;20573;-52
2023/01/11 01:28:49;;;;;;;6.57;4.00;;;4.50;99.90;;;;;;5031064;28;20188;-52
2023/01/11 01:31:15;;;;;;;4.33;3.80;;;4.50;99.90;;;;;;5031019;28;20176;-54
2023/01/11 01:33:40;;;;;;;5.80;4.17;;;4.60;99.90;;;;;;5030785;28;20184;-51
2023/01/11 01:36:06;;;;;;;9.07;4.83;;;4.60;99.90;;;;;;5030692;28;20202;-51
2023/01/11 01:38:32;;;;;;;5.93;4.17;;;4.70;99.90;;;;;;5030913;28;20188;-51
2023/01/11 01:40:57;;;;;;;5.07;3.87;;;4.70;99.90;;;;;;5030642;28;20546;-55
2023/01/11 01:43:47;;;;;;;4.43;3.43;;;4.70;99.90;;;;;;5030854;28;20226;-53
2023/01/11 01:46:14;;;;;;;7.50;3.90;;;4.70;99.90;;;;;;5031804;28;20565;-55
2023/01/11 01:48:42;;;;;;;3.57;3.27;;;4.80;99.90;;;;;;5034772;28;20326;-52
2023/01/11 01:51:10;;;;;;;4.43;3.37;;;4.80;99.90;;;;;;5034574;28;20229;-53
2023/01/11 01:53:45;;;;;;;5.17;3.63;;;4.80;99.90;;;;;;5031331;28;20576;-50
2023/01/11 01:56:29;;;;;;;4.60;3.30;;;4.90;99.90;;;;;;5035461;28;20223;-48
2023/01/11 01:59:00;;;;;;;4.43;3.50;;;4.90;99.90;;;;;;5034081;28;20183;-53
2023/01/11 02:04:13;;;;;;;5.50;4.13;;;5.00;99.90;;;;;;5034235;28;20213;-53
2023/01/11 02:06:40;;;;;;;5.17;4.20;;;4.90;99.90;;;;;;5034057;28;20526;-53
2023/01/11 02:09:20;;;;;;;4.87;3.90;;;5.00;99.90;;;;;;5033993;28;20179;-51
2023/01/11 02:11:46;;;;;;;5.90;4.00;;;5.00;99.90;;;;;;5034270;28;20223;-55
2023/01/11 02:14:16;;;;;;;6.00;3.83;;;5.00;99.90;;;;;;5033395;28;20211;-52
2023/01/11 02:16:41;;;;;;;5.27;4.10;;;5.00;99.90;;;;;;5033710;28;20291;-53
2023/01/11 02:19:12;;;;;;;5.13;4.17;;;5.00;99.90;;;;;;5033947;28;20215;-54
2023/01/11 02:21:54;;;;;;;5.67;3.87;;;5.00;99.90;;;;;;5033969;28;20175;-51
2023/01/11 02:24:57;;;;;;;7.57;5.17;;;5.10;99.90;;;;;;5032270;28;20244;-55
2023/01/11 02:28:00;;;;;;;8.70;5.77;;;5.10;99.90;;;;;;5033803;28;20175;-55
2023/01/11 02:30:54;;;;;;;7.53;5.27;;;5.10;99.90;;;;;;5033493;28;20187;-55
2023/01/11 02:33:54;;;;;;;7.77;5.00;;;5.10;99.90;;;;;;5023030;28;20192;-52
2023/01/11 02:36:32;;;;;;;6.93;5.00;;;5.10;99.90;;;;;;5033478;28;20250;-52
2023/01/11 02:39:10;;;;;;;6.77;4.93;;;5.20;99.90;;;;;;5033889;28;20179;-52
2023/01/11 02:45:02;;;;;;;5.17;4.13;;;5.20;99.90;;;;;;5033366;28;20175;-55
2023/01/11 02:47:48;;;;;;;5.33;3.93;;;5.20;99.90;;;;;;5033555;28;20175;-52
2023/01/11 02:50:32;;;;;;;6.03;4.17;;;5.10;99.90;;;;;;5033341;28;20629;-53
2023/01/11 02:53:00;;;;;;;5.20;3.87;;;5.10;99.90;;;;;;5033514;28;20180;-53
2023/01/11 02:55:31;;;;;;;5.90;4.03;;;5.10;99.90;;;;;;5032869;28;20207;-55
2023/01/11 02:58:00;;;;;;;5.50;4.33;;;5.10;99.90;;;;;;5033316;28;20219;-52
2023/01/11 03:00:26;;;;;;;4.80;4.20;;;5.10;99.90;;;;;;5033393;28;20163;-51
2023/01/11 03:03:08;;;;;;;6.03;4.40;;;5.20;99.90;;;;;;5033261;28;20179;-55
2023/01/11 03:05:53;;;;;;;6.27;4.50;;;5.20;99.90;;;;;;5032705;28;20677;-52
2023/01/11 03:08:44;;;;;;;5.73;4.50;;;5.30;99.90;;;;;;5032798;28;20183;-52
2023/01/11 03:14:57;;;;;;;7.67;4.57;;;5.40;99.90;;;;;;4971922;28;20276;-54
2023/01/11 03:17:34;;;;;;;5.43;4.40;;;5.40;99.90;;;;;;4971581;28;20209;-52
2023/01/11 03:20:24;;;;;;;5.27;3.63;;;5.30;99.90;;;;;;4989167;28;20268;-51
2023/01/11 03:23:10;;;;;;;6.73;4.17;;;5.20;99.90;;;;;;4990014;28;20244;-52
2023/01/11 03:25:41;;;;;;;3.50;3.20;;;5.20;99.90;;;;;;4990487;28;20223;-53
2023/01/11 03:28:22;;;;;;;4.10;3.60;;;5.20;99.90;;;;;;4990206;28;20193;-53
2023/01/11 03:31:11;;;;;;;4.30;3.33;;;5.10;99.90;;;;;;4990845;28;20652;-52
2023/01/11 03:33:46;;;;;;;5.30;3.57;;;5.10;99.90;;;;;;4990566;28;20181;-52
2023/01/11 03:36:27;;;;;;;5.40;4.00;;;5.20;99.90;;;;;;4990081;28;20312;-54
2023/01/11 03:38:56;;;;;;;6.17;3.90;;;5.20;99.90;;;;;;4990702;28;20177;-52
2023/01/11 03:41:29;;;;;;;4.07;3.47;;;5.20;99.90;;;;;;4990923;28;20693;-52
2023/01/11 03:43:59;;;;;;;5.33;3.97;;;5.20;99.90;;;;;;4990167;28;20610;-53
2023/01/11 03:46:39;;;;;;;5.60;4.07;;;5.20;99.90;;;;;;4990731;28;20809;-52
2023/01/11 03:49:09;;;;;;;6.57;4.23;;;5.20;99.90;;;;;;5048742;28;20187;-51
2023/01/11 03:51:41;;;;;;;4.83;3.83;;;5.30;99.90;;;;;;5052272;28;20547;-54
2023/01/11 03:54:08;;;;;;;4.97;3.90;;;5.30;99.90;;;;;;5031849;28;20186;-52
2023/01/11 03:56:52;;;;;;;4.70;3.73;;;5.30;99.90;;;;;;5031767;28;20273;-52
2023/01/11 03:59:18;;;;;;;5.07;4.00;;;5.30;99.90;;;;;;5032358;28;20182;-57
2023/01/11 04:01:43;;;;;;;4.50;3.90;;;5.20;99.90;;;;;;5032245;28;20180;-55
2023/01/11 04:04:09;;;;;;;5.13;3.80;;;5.20;99.90;;;;;;5031915;28;20171;-53
2023/01/11 04:06:36;;;;;;;4.03;3.57;;;5.30;99.90;;;;;;5032054;28;20196;-54
2023/01/11 04:09:02;;;;;;;8.90;4.90;;;5.30;99.90;;;;;;5031928;28;20699;-52
2023/01/11 04:11:28;;;;;;;7.20;4.43;;;5.40;99.90;;;;;;5032437;28;20679;-52
2023/01/11 04:13:53;;;;;;;5.80;4.50;;;5.40;99.90;;;;;;5032044;28;20184;-54
2023/01/11 04:16:19;;;;;;;6.17;3.60;;;5.40;99.90;;;;;;5032125;28;20211;-53
2023/01/11 04:18:44;;;;;;;8.63;4.83;;;5.40;99.90;;;;;;5032289;28;20172;-52
2023/01/11 04:21:10;;;;;;;5.73;4.60;;;5.40;99.90;;;;;;5032237;28;20701;-52
2023/01/11 04:23:36;;;;;;;5.33;4.83;;;5.50;99.90;;;;;;5031867;28;20175;-52
2023/01/11 04:26:01;;;;;;;6.60;5.03;;;5.50;99.90;;;;;;5032070;28;20187;-55
2023/01/11 04:28:27;;;;;;;7.33;5.43;;;5.50;99.90;;;;;;5032003;28;20191;-52
2023/01/11 04:30:52;;;;;;;5.93;4.93;;;5.50;99.90;;;;;;5032023;28;20215;-52
2023/01/11 04:33:18;;;;;;;6.93;5.00;;;5.50;99.90;;;;;;5032008;28;20176;-54
2023/01/11 04:35:44;;;;;;;5.63;4.70;;;5.50;99.90;;;;;;5031788;28;20188;-56
2023/01/11 04:38:10;;;;;;;6.07;4.07;;;5.50;99.90;;;;;;5031716;28;20199;-53
2023/01/11 04:40:35;;;;;;;5.13;4.43;;;5.50;99.90;;;;;;5032101;28;20540;-52
2023/01/11 04:43:01;;;;;;;5.63;3.87;;;5.50;99.90;;;;;;5032577;28;20195;-55
2023/01/11 04:45:28;;;;;;;5.13;4.30;;;5.50;99.90;;;;;;5031396;28;20196;-55
2023/01/11 04:47:58;;;;;;;6.80;4.53;;;5.50;99.90;;;;;;5050375;28;20186;-54
2023/01/11 04:50:24;;;;;;;8.33;4.67;;;5.50;99.90;;;;;;5047458;28;20188;-55
2023/01/11 04:52:50;;;;;;;5.63;4.63;;;5.50;99.90;;;;;;5031375;28;20693;-52
2023/01/11 04:55:16;;;;;;;4.30;3.90;;;5.50;99.90;;;;;;5031383;28;20186;-52
2023/01/11 04:57:45;;;;;;;8.00;4.97;;;5.50;99.90;;;;;;5031605;28;20203;-52
2023/01/11 05:00:12;;;;;;;6.67;5.67;;;5.50;99.90;;;;;;5031704;28;20184;-53
2023/01/11 05:02:39;;;;;;;12.30;10.67;;;5.50;99.90;;;;;;5031595;28;20229;-53
2023/01/11 05:05:06;;;;;;;5.70;5.10;;;5.50;99.90;;;;;;5031052;28;20186;-54
2023/01/11 05:07:32;;;;;;;5.33;4.30;;;5.40;99.90;;;;;;5031671;28;20241;-52
2023/01/11 05:09:58;;;;;;;8.60;4.60;;;5.40;99.90;;;;;;5031592;28;20649;-55
2023/01/11 05:12:24;;;;;;;7.77;4.20;;;5.40;99.90;;;;;;5031676;28;20180;-52
2023/01/11 05:14:49;;;;;;;6.40;4.13;;;5.50;99.90;;;;;;5031204;28;20611;-53
2023/01/11 05:17:16;;;;;;;5.27;4.40;;;5.60;99.90;;;;;;5031448;28;20230;-52
2023/01/11 05:19:41;;;;;;;5.53;4.13;;;5.40;99.90;;;;;;5031389;28;20541;-52
2023/01/11 05:22:08;;;;;;;4.70;4.23;;;5.60;99.90;;;;;;5034327;28;20176;-52
2023/01/11 05:24:34;;;;;;;5.33;3.97;;;5.50;99.90;;;;;;5035095;28;20560;-54
2023/01/11 05:26:59;;;;;;;5.20;3.30;;;5.10;99.90;;;;;;5035325;28;20204;-53
2023/01/11 05:29:25;;;;;;;4.27;3.53;;;5.50;99.90;;;;;;5035400;28;20182;-51
2023/01/11 05:31:50;;;;;;;5.60;3.47;;;5.50;99.90;;;;;;5035372;28;20190;-52
2023/01/11 05:34:17;;;;;;;4.93;3.43;;;5.50;99.90;;;;;;5034983;28;20516;-53
2023/01/11 05:36:43;;;;;;;3.93;3.17;;;5.30;99.90;;;;;;5034892;28;20684;-52
2023/01/11 05:39:10;;;;;;;5.27;3.50;;;;;;;;;;5035332;28;20176;-52
2023/01/11 05:41:36;;;;;;;7.27;5.13;;;5.50;99.90;;;;;;5035072;28;20540;-55
2023/01/11 05:46:46;;;;;;;4.93;4.17;;;5.30;99.90;;;;;;5034791;28;20207;-51
2023/01/11 05:49:13;;;;;;;4.00;3.60;;;5.30;99.90;;;;;;5035144;28;20184;-53
2023/01/11 05:51:39;;;;;;;5.57;4.17;;;5.30;99.90;;;;;;5034996;28;20195;-56
2023/01/11 05:54:06;;;;;;;6.03;4.30;;;5.30;99.90;;;;;;5034701;28;20180;-52
2023/01/11 05:56:32;;;;;;;4.83;3.53;;;5.30;99.90;;;;;;5034444;28;20707;-51
2023/01/11 05:58:58;;;;;;;4.30;3.70;;;5.20;99.90;;;;;;5034897;28;20184;-52
2023/01/11 06:01:24;;;;;;;5.30;3.47;;;5.10;99.90;;;;;;5034747;28;20179;-54
2023/01/11 06:03:50;;;;;;;5.63;3.97;;;5.10;99.90;;;;;;5034469;28;20183;-52
2023/01/11 06:06:17;;;;;;;4.83;4.23;;;5.10;99.90;;;;;;5034335;28;20353;-52
2023/01/11 06:08:43;;;;;;;4.70;4.03;;;5.10;99.90;;;;;;5034661;28;20225;-52
2023/01/11 06:11:09;;;;;;;5.10;4.50;;;5.00;99.90;;;;;;5034979;28;20266;-52
2023/01/11 06:13:34;;;;;;;6.30;4.33;;;5.00;99.90;;;;;;5034047;28;20657;-50
2023/01/11 06:16:06;;;;;;;5.27;3.83;;;5.10;99.90;;;;;;5034329;28;20318;-52
2023/01/11 06:18:34;;;;;;;4.63;4.10;;;5.00;99.90;;;;;;5034142;28;20226;-51
2023/01/11 06:21:01;;;;;;;4.40;3.93;;;5.00;99.90;;;;;;5034578;28;20178;-53
2023/01/11 06:23:29;;;;;;;4.23;3.83;;;5.00;99.90;;;;;;5034295;28;20183;-51
2023/01/11 06:25:55;;;;;;;4.53;3.50;;;4.90;99.90;;;;;;5033960;28;20672;-52
2023/01/11 06:28:21;;;;;;;6.27;3.93;;;5.00;99.90;;;;;;5034297;28;20259;-52
2023/01/11 06:30:52;;;;;;;4.77;3.87;;;5.10;99.90;;;;;;5033154;28;20216;-51
2023/01/11 06:33:17;;;;;;;4.13;3.73;;;5.20;99.90;;;;;;5033838;28;20226;-55
2023/01/11 06:35:43;;;;;;;4.20;3.50;;;5.30;99.90;;;;;;5033772;28;20207;-53
2023/01/11 06:38:11;;;;;;;4.60;3.70;;;5.30;99.90;;;;;;5034054;28;20235;-52
2023/01/11 06:40:38;;;;;;;6.47;4.10;;;5.40;99.90;;;;;;5034518;28;20188;-51
2023/01/11 06:43:05;;;;;;;5.63;3.60;;;5.50;99.90;;;;;;5034023;28;20184;-54
2023/01/11 06:45:31;;;;;;;5.00;3.80;;;5.50;99.90;;;;;;5033531;28;20196;-51
2023/01/11 06:47:56;;;;;;;4.30;3.80;;;5.60;99.90;;;;;;5033918;28;20179;-54
2023/01/11 06:50:23;;;;;;;4.20;3.77;;;5.60;99.90;;;;;;5034009;28;20203;-52
2023/01/11 06:52:56;;;;;;;4.00;3.60;;;5.70;99.90;;;;;;5033851;28;20568;-52
2023/01/11 06:55:23;;;;;;;3.87;3.50;;;5.70;99.90;;;;;;5032247;28;20187;-52
2023/01/11 06:57:49;;;;;;;3.63;3.33;;;5.70;99.90;;;;;;5033706;28;20298;-53
2023/01/11 07:00:16;;;;;;;4.60;4.20;;;5.80;99.90;;;;;;5033728;28;20176;-51
2023/01/11 07:02:41;;;;;;;3.63;3.33;;;5.80;99.90;;;;;;5033720;28;20262;-53
2023/01/11 07:05:07;;;;;;;4.00;3.60;;;5.80;99.90;;;;;;5033181;28;20287;-52
2023/01/11 07:07:33;;;;;;;4.07;3.77;;;5.80;99.90;;;;;;5033754;28;20179;-52
2023/01/11 07:09:58;;;;;;;4.53;4.07;;;5.70;99.90;;;;;;5032217;28;20180;-51
2023/01/11 07:12:24;;;;;;;5.03;4.07;;;5.70;99.90;;;;;;5033546;28;20187;-51
2023/01/11 07:14:49;;;;;;;4.67;4.03;;;5.70;99.90;;;;;;5033360;28;20186;-52
2023/01/11 07:17:15;;;;;;;4.40;4.00;;;5.70;99.90;;;;;;5033005;28;20218;-52
2023/01/11 07:19:41;;;;;;;4.20;3.50;;;5.80;99.90;;;;;;5033280;28;20232;-52
2023/01/11 07:22:06;;;;;;;4.10;3.63;;;5.70;99.90;;;;;;5033112;28;20175;-55
2023/01/11 07:24:32;;;;;;;3.73;3.43;;;5.70;99.90;;;;;;5047327;28;20210;-51
2023/01/11 07:27:00;;;;;;;3.50;3.20;;;5.70;99.90;;;;;;5052638;28;20273;-52
2023/01/11 07:29:26;;;;;;;5.13;3.63;;;5.70;99.90;;;;;;5046613;28;20183;-53
2023/01/11 07:31:51;;;;;;;4.13;3.47;;;5.70;99.90;;;;;;5038908;28;20294;-52
2023/01/11 07:34:17;;;;;;;4.77;3.93;;;5.70;99.90;;;;;;5040024;28;20195;-53
2023/01/11 07:36:43;;;;;;;4.53;3.63;;;5.70;99.90;;;;;;5046583;28;20594;-53
2023/01/11 07:39:08;;;;;;;4.00;3.60;;;5.80;99.90;;;;;;5036265;28;20720;-51
2023/01/11 07:44:18;;;;;;;4.80;3.73;;;5.70;99.90;;;;;;5039539;28;20561;-55
2023/01/11 07:46:44;;;;;;;3.80;3.27;;;5.70;99.90;;;;;;5049122;28;20203;-53
2023/01/11 07:49:10;;;;;;;3.80;3.27;;;5.70;99.90;;;;;;5051388;28;20175;-53
2023/01/11 07:51:35;;;;;;;4.20;3.80;;;5.70;99.90;;;;;;5051180;28;20233;-52
2023/01/11 07:54:02;;;;;;;4.37;3.60;;;5.80;99.90;;;;;;5052314;28;20643;-53
2023/01/11 07:56:29;;;;;;;3.97;3.60;;;5.90;99.90;;;;;;5052213;28;20206;-51
2023/01/11 07:58:54;;;;;;;4.10;3.70;;;6.00;99.90;;;;;;5052550;28;20187;-51
2023/01/11 08:01:21;;;;;;;5.30;4.10;;;6.00;99.90;;;;;;5052506;28;20175;-52
2023/01/11 08:03:46;;;;;;;6.50;5.10;;;6.00;99.90;;;;;;5043945;28;20223;-53
2023/01/11 08:06:13;;;;;;;6.53;5.40;;;6.10;99.90;;;;;;5032209;28;20226;-52
2023/01/11 08:08:39;;;;;;;6.83;5.70;;;6.10;99.90;;;;;;5032220;28;20215;-55
2023/01/11 08:16:33;;;;;;;6.67;5.20;;;6.20;99.90;;;;;;5032119;28;20253;-53
2023/01/11 08:18:59;;;;;;;5.40;4.80;;;6.30;99.90;;;;;;5032056;28;20172;-52
2023/01/11 08:21:24;;;;;;;5.50;4.37;;;6.40;99.90;;;;;;5032165;28;20572;-54
2023/01/11 08:23:52;;;;;;;4.37;3.70;;;6.40;99.90;;;;;;5031761;28;20697;-53
2023/01/11 08:26:18;;;;;;;5.53;4.93;;;6.40;99.90;;;;;;5031699;28;20196;-54
2023/01/11 08:28:44;;;;;;;4.73;4.20;;;6.40;99.90;;;;;;5031986;28;20234;-53
2023/01/11 08:31:10;;;;;;;6.47;5.43;;;6.40;99.90;;;;;;5031811;28;20206;-52
2023/01/11 08:33:36;;;;;;;8.23;6.37;;;;;;;;;;5031568;28;20208;-53
2023/01/11 08:36:09;;;;;;;8.33;5.77;;;6.60;99.90;;;;;;5031608;28;20199;-53
2023/01/11 08:38:35;;;;;;;4.17;3.70;;;6.50;99.90;;;;;;5032144;28;20266;-53
2023/01/11 08:41:02;;;;;;;4.77;4.27;;;6.50;99.90;;;;;;5031696;28;20823;-53
2023/01/11 08:43:30;;;;;;;5.03;4.53;;;;;;;;;;5031422;28;20360;-52
2023/01/11 08:45:56;;;;;;;5.13;4.63;;;6.60;99.90;;;;;;5031531;28;20187;-52
2023/01/11 08:48:22;;;;;;;10.60;9.50;;;6.60;99.90;;;;;;5031509;28;20629;-52
2023/01/11 08:50:48;;;;;;;13.27;10.40;;;6.60;99.90;;;;;;5031773;28;20198;-55
2023/01/11 08:53:14;;;;;;;11.93;8.83;;;6.60;99.90;;;;;;5036352;28;20206;-52
2023/01/11 08:55:42;;;;;;;4.80;4.17;;;6.70;99.90;;;;;;5042950;28;20567;-55
2023/01/11 08:58:07;;;;;;;5.90;4.97;;;6.70;99.90;;;;;;5046869;28;20203;-53
2023/01/11 09:00:33;;;;;;;5.00;4.50;;;6.80;99.90;;;;;;5030956;28;20551;-48
2023/01/11 09:03:02;;;;;;;4.40;3.80;;;6.80;99.90;;;;;;5037042;28;20188;-52
2023/01/11 09:05:27;;;;;;;7.67;5.63;;;7.00;99.90;;;;;;5030686;28;20242;-52
2023/01/11 09:07:54;;;;;;;10.53;9.10;;;6.90;99.90;;;;;;5030819;28;20580;-52
2023/01/11 09:10:20;;;;;;;5.03;4.30;;;7.00;99.90;;;;;;5031942;28;20183;-51
2023/01/11 09:12:45;;;;;;;5.07;4.30;;;7.00;99.90;;;;;;5030939;28;20229;-53
2023/01/11 09:15:11;;;;;;;5.07;4.50;;;7.00;99.90;;;;;;5030615;28;20183;-53
2023/01/11 09:17:37;;;;;;;4.13;3.73;;;7.00;99.90;;;;;;5030869;28;20203;-52
2023/01/11 09:20:03;;;;;;;4.50;4.00;;;7.10;99.90;;;;;;5030965;28;20176;-52
2023/01/11 09:22:28;;;;;;;5.83;4.87;;;7.30;99.90;;;;;;5030824;28;20178;-53
2023/01/11 09:24:57;;;;;;;4.93;4.43;;;7.60;99.90;;;;;;5030424;28;20163;-53
2023/01/11 09:27:23;;;;;;;4.90;4.27;;;7.90;99.90;;;;;;5037497;28;20218;-51
2023/01/11 09:29:48;;;;;;;4.70;3.80;;;8.10;99.90;;;;;;5050700;28;20179;-52
2023/01/11 09:32:14;;;;;;;4.57;4.17;;;8.30;99.90;;;;;;5050829;28;20187;-52
2023/01/11 09:34:41;;;;;;;5.87;4.93;;;8.30;99.90;;;;;;5050863;28;20202;-55
2023/01/11 09:37:07;;;;;;;5.57;4.90;;;8.30;99.90;;;;;;5050631;28;20227;-54
2023/01/11 09:39:33;;;;;;;8.00;6.23;;;8.30;99.90;;;;;;5050867;28;20627;-52
2023/01/11 09:42:31;;;;;;;9.30;8.07;;;8.40;99.90;;;;;;5050841;28;20179;-53
2023/01/11 09:45:06;;;;;;;9.30;8.37;;;8.30;99.90;;;;;;5050494;28;20209;-53
2023/01/11 09:47:59;;;;;;;7.40;6.60;;;8.30;99.90;;;;;;5050642;28;20669;-55
2023/01/11 09:50:28;;;;;;;9.73;7.40;;;8.30;99.90;;;;;;5050835;28;20632;-52
2023/01/11 09:53:07;;;;;;;9.00;6.37;;;8.30;99.90;;;;;;5050674;28;20309;-52
2023/01/11 09:55:43;;;;;;;6.43;5.80;;;8.40;99.90;;;;;;5050388;28;20198;-52
2023/01/11 09:58:35;;;;;;;5.53;4.90;;;8.50;99.90;;;;;;5050669;28;20206;-53
2023/01/11 10:01:15;;;;;;;6.00;5.03;;;8.60;99.90;;;;;;4969701;28;20198;-53
2023/01/11 10:04:10;;;;;;;6.50;5.00;;;8.80;99.90;;;;;;4969267;28;20205;-52
2023/01/11 10:06:57;;;;;;;4.83;4.37;;;8.90;99.90;;;;;;4969764;28;20233;-53
2023/01/11 10:09:32;;;;;;;4.10;3.70;;;8.90;99.90;;;;;;4973184;28;20582;-52
2023/01/11 10:12:15;;;;;;;4.40;4.00;;;9.00;99.90;;;;;;4973122;28;20193;-53
2023/01/11 10:15:31;;;;;;;4.73;3.73;;;9.10;99.90;;;;;;4972894;28;20272;-51
2023/01/11 10:17:59;;;;;;;4.50;3.00;;;9.10;99.90;;;;;;4971873;28;20221;-54
2023/01/11 10:20:34;;;;;;;3.20;2.90;;;9.00;99.90;;;;;;4972255;28;20252;-51
2023/01/11 10:23:40;;;;;;;4.00;3.60;;;11.00;99.90;;;;;;4972515;28;20184;-51
2023/01/11 10:26:16;;;;;;;3.47;3.17;;;8.50;99.90;;;;;;4972343;28;20701;-54
2023/01/11 10:42:50;;;;;;;4.03;3.57;;;8.30;99.90;;;;;;4972399;28;20185;-52
2023/01/11 10:45:19;;;;;;;4.50;3.97;;;8.40;99.90;;;;;;4971956;28;20180;-54
2023/01/11 10:48:02;;;;;;;4.30;3.90;;;8.40;99.90;;;;;;4972528;28;20186;-56
2023/01/11 10:50:54;;;;;;;4.27;3.60;;;8.40;99.90;;;;;;4974676;28;20201;-52
2023/01/11 10:53:28;;;;;;;4.60;3.37;;;8.30;99.90;;;;;;4978141;28;20245;-52
2023/01/11 10:56:20;;;;;;;3.37;3.07;;;8.30;99.90;;;;;;4971847;28;20221;-54
2023/01/11 10:59:23;;;;;;;3.60;3.30;;;8.20;99.90;;;;;;4972303;28;20192;-52
2023/01/11 11:01:55;;;;;;;3.90;3.27;;;8.10;99.90;;;;;;4972177;28;20181;-52
2023/01/11 11:04:21;;;;;;;3.57;3.27;;;8.20;99.90;;;;;;4971701;28;20220;-52
2023/01/11 11:06:49;;;;;;;3.57;3.20;;;8.10;99.90;;;;;;4971901;28;20202;-53
2023/01/11 11:09:35;;;;;;;3.00;2.70;;;8.10;99.90;;;;;;5012612;28;20183;-53
2023/01/11 11:12:08;;;;;;;2.80;2.60;;;8.10;99.90;;;;;;5032985;28;20172;-56
2023/01/11 11:14:56;;;;;;;3.50;3.10;;;8.20;99.90;;;;;;5032849;28;20180;-52
2023/01/11 11:17:45;;;;;;;3.77;2.67;;;8.40;99.90;;;;;;5032845;28;20269;-52
2023/01/11 11:20:14;;;;;;;3.07;2.83;;;8.40;99.90;;;;;;5032078;28;20179;-52
2023/01/11 11:22:41;;;;;;;3.30;2.60;;;8.40;99.90;;;;;;5032960;28;20175;-53
2023/01/11 11:25:36;;;;;;;2.70;2.50;;;8.50;99.90;;;;;;5032776;28;20172;-51
2023/01/11 11:28:23;;;;;;;2.60;2.40;;;8.60;99.90;;;;;;5032814;28;20172;-52
2023/01/11 11:30:52;;;;;;;2.90;2.70;;;8.80;99.90;;;;;;5031460;28;20183;-52
2023/01/11 11:33:33;;;;;;;3.07;2.77;;;8.80;99.90;;;;;;5033050;28;20183;-52
2023/01/11 11:36:03;;;;;;;2.67;2.40;;;8.80;99.90;;;;;;5032514;28;20265;-55
2023/01/11 11:38:31;;;;;;;3.47;2.87;;;10.30;99.90;;;;;;5032613;28;20208;-53
2023/01/11 11:41:03;;;;;;;2.90;2.70;;;9.00;99.90;;;;;;5032045;28;20561;-53
2023/01/11 11:43:29;;;;;;;3.63;2.93;;;9.10;99.90;;;;;;5032246;28;20766;-49
2023/01/11 11:46:03;;;;;;;4.40;2.50;;;9.10;99.90;;;;;;5032027;28;20207;-51
2023/01/11 11:48:31;;;;;;;3.00;2.70;;;9.10;99.90;;;;;;5032509;28;20265;-53
2023/01/11 11:50:59;;;;;;;2.47;2.20;;;9.20;99.90;;;;;;5031979;28;20275;-51
2023/01/11 11:53:43;;;;;;;2.93;2.73;;;9.30;99.90;;;;;;5032187;28;20176;-51
2023/01/11 11:56:31;;;;;;;3.37;3.07;;;9.30;99.90;;;;;;5032068;28;20575;-52
2023/01/11 11:58:58;;;;;;;2.63;2.43;;;9.20;99.90;;;;;;5032342;28;20187;-53
2023/01/11 12:01:28;;;;;;;3.00;2.80;;;9.10;99.90;;;;;;5032107;28;20186;-52
2023/01/11 12:04:00;;;;;;;3.30;3.00;;;9.10;99.90;;;;;;5031772;28;20171;-52
2023/01/11 12:06:28;;;;;;;3.30;3.00;;;9.10;99.90;;;;;;5032010;28;20219;-52
2023/01/11 12:08:55;;;;;;;3.27;2.97;;;9.10;99.90;;;;;;5031970;28;20571;-53
2023/01/11 12:11:36;;;;;;;3.10;2.80;;;9.20;99.90;;;;;;5031965;28;20175;-52
2023/01/11 12:14:15;;;;;;;2.50;2.30;;;9.20;99.90;;;;;;5031746;28;20191;-53
2023/01/11 12:16:43;;;;;;;3.60;3.30;;;9.20;99.90;;;;;;5031321;28;20196;-52
2023/01/11 12:19:35;;;;;;;2.60;2.40;;;9.40;99.90;;;;;;5031619;28;20218;-53
2023/01/11 12:22:25;;;;;;;3.00;2.37;;;9.60;99.90;;;;;;5031969;28;20249;-52
2023/01/11 12:25:17;;;;;;;3.10;2.50;;;9.70;99.90;;;;;;5031491;28;20168;-52
2023/01/11 12:27:52;;;;;;;2.67;2.47;;;9.60;99.90;;;;;;5030476;28;20179;-52
2023/01/11 12:30:32;;;;;;;2.33;2.17;;;9.70;99.90;;;;;;5030011;28;20183;-54
2023/01/11 12:33:28;;;;;;;2.93;2.67;;;9.70;99.90;;;;;;5031614;28;20213;-51
2023/01/11 12:36:28;;;;;;;2.60;2.40;;;9.60;99.90;;;;;;5031338;28;20244;-55
2023/01/11 12:39:08;;;;;;;2.53;2.33;;;9.40;99.90;;;;;;5031543;28;20175;-52
2023/01/11 12:41:43;;;;;;;3.10;2.80;;;9.60;99.90;;;;;;5031603;28;20175;-52
2023/01/11 12:44:22;;;;;;;2.43;2.23;;;9.50;99.90;;;;;;5031209;28;20168;-55
2023/01/11 12:47:08;;;;;;;4.10;3.30;;;9.50;99.90;;;;;;5031336;28;20199;-52
2023/01/11 12:50:00;;;;;;;7.00;5.57;;;9.30;99.90;;;;;;5031537;28;20490;-54
2023/01/11 12:52:32;;;;;;;7.77;6.10;;;9.00;99.90;;;;;;5046289;28;20543;-53
2023/01/11 12:55:20;;;;;;;3.20;2.90;;;8.90;99.90;;;;;;5050955;28;20585;-52
2023/01/11 12:58:00;;;;;;;2.50;2.40;;;8.90;99.90;;;;;;5050023;28;20203;-57
2023/01/11 13:00:44;;;;;;;2.60;2.40;;;9.00;99.90;;;;;;5051227;28;20282;-53
2023/01/11 13:03:40;;;;;;;3.30;2.83;;;9.00;99.90;;;;;;5051323;28;20651;-53
2023/01/11 13:06:19;;;;;;;4.47;3.50;;;8.90;99.90;;;;;;5031054;28;20200;-52
2023/01/11 13:09:01;;;;;;;3.87;2.63;;;9.00;99.90;;;;;;5040280;28;20171;-55
2023/01/11 13:11:51;;;;;;;3.43;2.77;;;9.10;99.90;;;;;;5050783;28;20191;-52
2023/01/11 13:14:56;;;;;;;2.90;2.60;;;9.10;99.90;;;;;;5030543;28;20258;-52
2023/01/11 13:17:40;;;;;;;3.67;2.77;;;9.30;99.90;;;;;;5030938;28;20556;-52
2023/01/11 13:20:09;;;;;;;3.00;2.70;;;9.40;99.90;;;;;;5031204;28;20168;-53
2023/01/11 13:22:40;;;;;;;3.90;3.20;;;9.50;99.90;;;;;;5031022;28;20591;-52
2023/01/11 13:25:35;;;;;;;6.20;4.80;;;9.60;99.90;;;;;;5030883;28;20225;-54
2023/01/11 13:28:13;;;;;;;9.70;7.70;;;9.70;99.90;;;;;;5028621;28;20187;-52
2023/01/11 13:30:40;;;;;;;4.43;3.40;;;9.70;99.90;;;;;;5031006;28;20210;-52
2023/01/11 13:33:12;;;;;;;3.00;2.80;;;9.80;99.90;;;;;;5030954;28;20168;-54
2023/01/11 13:36:05;;;;;;;2.73;2.53;;;9.90;99.90;;;;;;5030572;28;20483;-52
2023/01/11 13:38:40;;;;;;;3.00;2.70;;;10.10;99.90;;;;;;5031030;28;20203;-52
2023/01/11 13:41:35;;;;;;;2.83;2.40;;;10.00;99.90;;;;;;5043009;28;20174;-52
2023/01/11 13:44:11;;;;;;;3.00;2.80;;;10.10;99.90;;;;;;5041765;28;20187;-54
2023/01/11 13:46:48;;;;;;;2.63;2.43;;;;;;;;;;5053587;28;20222;-51
2023/01/11 13:49:20;;;;;;;3.00;2.73;;;10.10;99.90;;;;;;5054431;28;20163;-52
2023/01/11 13:51:55;;;;;;;2.80;2.60;;;10.20;99.90;;;;;;5054082;28;20193;-52
2023/01/11 13:54:37;;;;;;;4.30;3.37;;;10.10;99.90;;;;;;5054035;28;20165;-51
2023/01/11 13:57:09;;;;;;;4.57;3.77;;;10.00;99.90;;;;;;5054058;28;20306;-54
2023/01/11 13:59:44;;;;;;;3.87;3.47;;;10.00;99.90;;;;;;5054204;28;20163;-52
2023/01/11 14:02:19;;;;;;;3.37;2.77;;;10.00;99.90;;;;;;5054468;28;20249;-52
2023/01/11 14:04:54;;;;;;;5.23;2.90;;;10.00;99.90;;;;;;5053925;28;20171;-52
2023/01/11 14:07:54;;;;;;;2.77;2.57;;;10.00;99.90;;;;;;5054147;28;20187;-52
2023/01/11 14:10:37;;;;;;;3.30;3.00;;;10.00;99.90;;;;;;5054149;28;20167;-53